sensor_id;sensor_type;location;lat;lon;timestamp;P1;durP1;ratioP1;P2;durP2;ratioP2
39846;SDS011;25517;52.422;10.782;2024-02-26T00:02:18;7.20;;;4.28;;
39846;SDS011;25517;52.422;10.782;2024-02-26T00:04:44;7.63;;;4.03;;
39846;SDS011;25517;52.422;10.782;2024-02-26T00:07:09;10.02;;;4.68;;
39846;SDS011;25517;52.422;10.782;2024-02-26T00:09:35;5.60;;;3.60;;
39846;SDS011;25517;52.422;10.782;2024-02-26T00:12:02;7.55;;;4.65;;
39846;SDS011;25517;52.422;10.782;2024-02-26T00:14:29;11.30;;;4.47;;
39846;SDS011;25517;52.422;10.782;2024-02-26T00:16:55;9.90;;;5.20;;
39846;SDS011;25517;52.422;10.782;2024-02-26T00:19:20;5.00;;;4.05;;
39846;SDS011;25517;52.422;10.782;2024-02-26T00:21:46;7.25;;;4.65;;
39846;SDS011;25517;52.422;10.782;2024-02-26T00:24:11;6.65;;;4.95;;
39846;SDS011;25517;52.422;10.782;2024-02-26T00:26:37;6.95;;;3.90;;
39846;SDS011;25517;52.422;10.782;2024-02-26T00:29:03;8.15;;;4.45;;
39846;SDS011;25517;52.422;10.782;2024-02-26T00:31:28;7.43;;;3.88;;
39846;SDS011;25517;52.422;10.782;2024-02-26T00:33:54;9.20;;;4.35;;
39846;SDS011;25517;52.422;10.782;2024-02-26T00:36:20;7.35;;;4.22;;
39846;SDS011;25517;52.422;10.782;2024-02-26T00:38:45;7.70;;;4.32;;
39846;SDS011;25517;52.422;10.782;2024-02-26T00:41:15;5.70;;;3.75;;
39846;SDS011;25517;52.422;10.782;2024-02-26T00:43:44;6.65;;;4.05;;
39846;SDS011;25517;52.422;10.782;2024-02-26T00:46:10;7.47;;;4.10;;
39846;SDS011;25517;52.422;10.782;2024-02-26T00:48:35;6.65;;;4.18;;
39846;SDS011;25517;52.422;10.782;2024-02-26T00:51:02;6.85;;;3.85;;
39846;SDS011;25517;52.422;10.782;2024-02-26T00:53:30;6.93;;;4.05;;
39846;SDS011;25517;52.422;10.782;2024-02-26T00:55:55;8.88;;;4.00;;
39846;SDS011;25517;52.422;10.782;2024-02-26T00:58:21;8.45;;;3.72;;
39846;SDS011;25517;52.422;10.782;2024-02-26T01:00:47;6.53;;;4.65;;
39846;SDS011;25517;52.422;10.782;2024-02-26T01:03:12;5.38;;;4.30;;
39846;SDS011;25517;52.422;10.782;2024-02-26T01:05:38;6.97;;;4.25;;
39846;SDS011;25517;52.422;10.782;2024-02-26T01:08:04;6.45;;;4.47;;
39846;SDS011;25517;52.422;10.782;2024-02-26T01:10:29;7.45;;;4.32;;
39846;SDS011;25517;52.422;10.782;2024-02-26T01:12:55;6.72;;;4.60;;
39846;SDS011;25517;52.422;10.782;2024-02-26T01:15:21;6.30;;;3.80;;
39846;SDS011;25517;52.422;10.782;2024-02-26T01:17:49;8.82;;;4.00;;
39846;SDS011;25517;52.422;10.782;2024-02-26T01:20:15;5.90;;;3.78;;
39846;SDS011;25517;52.422;10.782;2024-02-26T01:22:42;6.43;;;4.05;;
39846;SDS011;25517;52.422;10.782;2024-02-26T01:25:07;8.88;;;4.18;;
39846;SDS011;25517;52.422;10.782;2024-02-26T01:27:34;9.52;;;4.55;;
39846;SDS011;25517;52.422;10.782;2024-02-26T01:30:01;6.63;;;4.38;;
39846;SDS011;25517;52.422;10.782;2024-02-26T01:32:28;5.93;;;4.13;;
39846;SDS011;25517;52.422;10.782;2024-02-26T01:34:55;8.68;;;3.83;;
39846;SDS011;25517;52.422;10.782;2024-02-26T01:37:20;6.22;;;4.05;;
39846;SDS011;25517;52.422;10.782;2024-02-26T01:39:46;7.78;;;4.13;;
39846;SDS011;25517;52.422;10.782;2024-02-26T01:42:12;6.03;;;4.28;;
39846;SDS011;25517;52.422;10.782;2024-02-26T01:44:37;8.60;;;4.18;;
39846;SDS011;25517;52.422;10.782;2024-02-26T01:47:03;5.20;;;4.00;;
39846;SDS011;25517;52.422;10.782;2024-02-26T01:49:30;5.47;;;3.95;;
39846;SDS011;25517;52.422;10.782;2024-02-26T01:51:56;7.40;;;4.18;;
39846;SDS011;25517;52.422;10.782;2024-02-26T01:54:22;6.68;;;4.07;;
39846;SDS011;25517;52.422;10.782;2024-02-26T01:56:48;6.47;;;3.80;;
39846;SDS011;25517;52.422;10.782;2024-02-26T01:59:15;6.53;;;3.90;;
39846;SDS011;25517;52.422;10.782;2024-02-26T02:01:42;4.97;;;4.03;;
39846;SDS011;25517;52.422;10.782;2024-02-26T02:04:10;6.13;;;4.10;;
39846;SDS011;25517;52.422;10.782;2024-02-26T02:06:37;6.10;;;4.25;;
39846;SDS011;25517;52.422;10.782;2024-02-26T02:09:03;6.18;;;4.10;;
39846;SDS011;25517;52.422;10.782;2024-02-26T02:11:32;6.22;;;4.32;;
39846;SDS011;25517;52.422;10.782;2024-02-26T02:13:59;6.90;;;4.30;;
39846;SDS011;25517;52.422;10.782;2024-02-26T02:16:25;5.53;;;3.70;;
39846;SDS011;25517;52.422;10.782;2024-02-26T02:18:51;7.13;;;4.53;;
39846;SDS011;25517;52.422;10.782;2024-02-26T02:21:16;5.55;;;3.70;;
39846;SDS011;25517;52.422;10.782;2024-02-26T02:23:42;7.60;;;4.72;;
39846;SDS011;25517;52.422;10.782;2024-02-26T02:26:11;7.85;;;4.20;;
39846;SDS011;25517;52.422;10.782;2024-02-26T02:28:40;7.00;;;4.32;;
39846;SDS011;25517;52.422;10.782;2024-02-26T02:31:06;8.95;;;4.60;;
39846;SDS011;25517;52.422;10.782;2024-02-26T02:33:32;9.00;;;5.15;;
39846;SDS011;25517;52.422;10.782;2024-02-26T02:36:02;7.50;;;4.38;;
39846;SDS011;25517;52.422;10.782;2024-02-26T02:38:28;7.10;;;4.45;;
39846;SDS011;25517;52.422;10.782;2024-02-26T02:40:54;5.90;;;4.45;;
39846;SDS011;25517;52.422;10.782;2024-02-26T02:43:20;6.40;;;4.32;;
39846;SDS011;25517;52.422;10.782;2024-02-26T02:45:46;5.40;;;4.30;;
39846;SDS011;25517;52.422;10.782;2024-02-26T02:48:11;9.15;;;4.35;;
39846;SDS011;25517;52.422;10.782;2024-02-26T02:50:37;6.53;;;4.28;;
39846;SDS011;25517;52.422;10.782;2024-02-26T02:53:03;7.25;;;4.72;;
39846;SDS011;25517;52.422;10.782;2024-02-26T02:55:28;6.85;;;4.38;;
39846;SDS011;25517;52.422;10.782;2024-02-26T02:57:54;6.63;;;4.38;;
39846;SDS011;25517;52.422;10.782;2024-02-26T03:00:19;6.15;;;4.15;;
39846;SDS011;25517;52.422;10.782;2024-02-26T03:02:47;5.93;;;4.28;;
39846;SDS011;25517;52.422;10.782;2024-02-26T03:05:13;5.57;;;3.97;;
39846;SDS011;25517;52.422;10.782;2024-02-26T03:07:39;5.40;;;4.53;;
39846;SDS011;25517;52.422;10.782;2024-02-26T03:10:04;6.30;;;4.18;;
39846;SDS011;25517;52.422;10.782;2024-02-26T03:12:30;7.32;;;4.88;;
39846;SDS011;25517;52.422;10.782;2024-02-26T03:14:56;6.82;;;4.10;;
39846;SDS011;25517;52.422;10.782;2024-02-26T03:17:22;7.25;;;4.32;;
39846;SDS011;25517;52.422;10.782;2024-02-26T03:19:49;6.80;;;4.68;;
39846;SDS011;25517;52.422;10.782;2024-02-26T03:22:18;13.60;;;5.72;;
39846;SDS011;25517;52.422;10.782;2024-02-26T03:24:44;6.90;;;5.03;;
39846;SDS011;25517;52.422;10.782;2024-02-26T03:27:09;8.88;;;4.63;;
39846;SDS011;25517;52.422;10.782;2024-02-26T03:29:35;7.18;;;5.13;;
39846;SDS011;25517;52.422;10.782;2024-02-26T03:32:02;10.50;;;5.45;;
39846;SDS011;25517;52.422;10.782;2024-02-26T03:34:28;7.07;;;5.55;;
39846;SDS011;25517;52.422;10.782;2024-02-26T03:36:53;10.02;;;6.22;;
39846;SDS011;25517;52.422;10.782;2024-02-26T03:39:19;8.52;;;5.63;;
39846;SDS011;25517;52.422;10.782;2024-02-26T03:41:44;9.52;;;6.82;;
39846;SDS011;25517;52.422;10.782;2024-02-26T03:44:10;8.70;;;6.30;;
39846;SDS011;25517;52.422;10.782;2024-02-26T03:46:35;8.77;;;5.75;;
39846;SDS011;25517;52.422;10.782;2024-02-26T03:49:01;8.68;;;6.35;;
39846;SDS011;25517;52.422;10.782;2024-02-26T03:51:26;9.18;;;6.53;;
39846;SDS011;25517;52.422;10.782;2024-02-26T03:53:56;10.43;;;6.10;;
39846;SDS011;25517;52.422;10.782;2024-02-26T03:56:22;10.68;;;7.18;;
39846;SDS011;25517;52.422;10.782;2024-02-26T03:58:48;7.85;;;5.97;;
39846;SDS011;25517;52.422;10.782;2024-02-26T04:01:13;11.07;;;6.15;;
39846;SDS011;25517;52.422;10.782;2024-02-26T04:03:39;11.55;;;7.05;;
39846;SDS011;25517;52.422;10.782;2024-02-26T04:06:04;9.90;;;6.30;;
39846;SDS011;25517;52.422;10.782;2024-02-26T04:08:33;9.27;;;6.38;;
39846;SDS011;25517;52.422;10.782;2024-02-26T04:10:58;9.32;;;6.30;;
39846;SDS011;25517;52.422;10.782;2024-02-26T04:13:25;7.35;;;6.10;;
39846;SDS011;25517;52.422;10.782;2024-02-26T04:15:51;9.43;;;6.43;;
39846;SDS011;25517;52.422;10.782;2024-02-26T04:18:16;8.85;;;6.43;;
39846;SDS011;25517;52.422;10.782;2024-02-26T04:20:42;8.30;;;6.35;;
39846;SDS011;25517;52.422;10.782;2024-02-26T04:23:07;9.25;;;6.60;;
39846;SDS011;25517;52.422;10.782;2024-02-26T04:25:33;9.45;;;6.53;;
39846;SDS011;25517;52.422;10.782;2024-02-26T04:27:59;10.23;;;7.50;;
39846;SDS011;25517;52.422;10.782;2024-02-26T04:30:24;8.65;;;6.80;;
39846;SDS011;25517;52.422;10.782;2024-02-26T04:32:50;16.55;;;7.78;;
39846;SDS011;25517;52.422;10.782;2024-02-26T04:35:15;9.88;;;7.28;;
39846;SDS011;25517;52.422;10.782;2024-02-26T04:37:41;11.40;;;7.00;;
39846;SDS011;25517;52.422;10.782;2024-02-26T04:40:06;11.77;;;7.05;;
39846;SDS011;25517;52.422;10.782;2024-02-26T04:42:33;11.27;;;6.82;;
39846;SDS011;25517;52.422;10.782;2024-02-26T04:44:58;9.43;;;7.55;;
39846;SDS011;25517;52.422;10.782;2024-02-26T04:47:24;13.52;;;7.68;;
39846;SDS011;25517;52.422;10.782;2024-02-26T04:49:49;10.55;;;7.57;;
39846;SDS011;25517;52.422;10.782;2024-02-26T04:52:15;10.52;;;7.10;;
39846;SDS011;25517;52.422;10.782;2024-02-26T04:54:41;11.63;;;7.35;;
39846;SDS011;25517;52.422;10.782;2024-02-26T04:57:06;9.32;;;7.05;;
39846;SDS011;25517;52.422;10.782;2024-02-26T04:59:32;9.15;;;6.68;;
39846;SDS011;25517;52.422;10.782;2024-02-26T05:01:57;10.95;;;6.90;;
39846;SDS011;25517;52.422;10.782;2024-02-26T05:04:23;12.20;;;7.82;;
39846;SDS011;25517;52.422;10.782;2024-02-26T05:06:48;9.82;;;6.45;;
39846;SDS011;25517;52.422;10.782;2024-02-26T05:09:14;10.63;;;7.00;;
39846;SDS011;25517;52.422;10.782;2024-02-26T05:11:40;9.90;;;6.35;;
39846;SDS011;25517;52.422;10.782;2024-02-26T05:14:05;10.75;;;6.97;;
39846;SDS011;25517;52.422;10.782;2024-02-26T05:16:31;9.00;;;7.35;;
39846;SDS011;25517;52.422;10.782;2024-02-26T05:18:57;10.07;;;6.45;;
39846;SDS011;25517;52.422;10.782;2024-02-26T05:21:22;8.95;;;6.50;;
39846;SDS011;25517;52.422;10.782;2024-02-26T05:23:48;9.02;;;6.45;;
39846;SDS011;25517;52.422;10.782;2024-02-26T05:26:20;10.48;;;6.97;;
39846;SDS011;25517;52.422;10.782;2024-02-26T05:28:46;10.48;;;6.68;;
39846;SDS011;25517;52.422;10.782;2024-02-26T05:31:15;9.68;;;6.45;;
39846;SDS011;25517;52.422;10.782;2024-02-26T05:33:41;9.02;;;6.75;;
39846;SDS011;25517;52.422;10.782;2024-02-26T05:36:06;13.52;;;7.63;;
39846;SDS011;25517;52.422;10.782;2024-02-26T05:38:32;11.70;;;7.18;;
39846;SDS011;25517;52.422;10.782;2024-02-26T05:40:58;11.95;;;6.53;;
39846;SDS011;25517;52.422;10.782;2024-02-26T05:43:24;13.43;;;6.45;;
39846;SDS011;25517;52.422;10.782;2024-02-26T05:45:50;9.13;;;7.10;;
39846;SDS011;25517;52.422;10.782;2024-02-26T05:48:16;11.75;;;6.90;;
39846;SDS011;25517;52.422;10.782;2024-02-26T05:50:44;12.13;;;6.65;;
39846;SDS011;25517;52.422;10.782;2024-02-26T05:53:12;11.35;;;7.07;;
39846;SDS011;25517;52.422;10.782;2024-02-26T05:55:38;9.20;;;7.05;;
39846;SDS011;25517;52.422;10.782;2024-02-26T05:58:04;11.85;;;7.15;;
39846;SDS011;25517;52.422;10.782;2024-02-26T06:00:29;7.97;;;6.07;;
39846;SDS011;25517;52.422;10.782;2024-02-26T06:02:55;10.25;;;7.28;;
39846;SDS011;25517;52.422;10.782;2024-02-26T06:05:21;10.43;;;6.90;;
39846;SDS011;25517;52.422;10.782;2024-02-26T06:07:46;11.57;;;6.95;;
39846;SDS011;25517;52.422;10.782;2024-02-26T06:10:12;10.05;;;6.82;;
39846;SDS011;25517;52.422;10.782;2024-02-26T06:12:38;8.27;;;6.18;;
39846;SDS011;25517;52.422;10.782;2024-02-26T06:15:05;9.80;;;6.85;;
39846;SDS011;25517;52.422;10.782;2024-02-26T06:17:31;10.73;;;6.80;;
39846;SDS011;25517;52.422;10.782;2024-02-26T06:19:57;9.23;;;6.45;;
39846;SDS011;25517;52.422;10.782;2024-02-26T06:22:24;7.35;;;6.22;;
39846;SDS011;25517;52.422;10.782;2024-02-26T06:24:50;10.18;;;6.72;;
39846;SDS011;25517;52.422;10.782;2024-02-26T06:27:15;8.02;;;6.22;;
39846;SDS011;25517;52.422;10.782;2024-02-26T06:29:41;10.48;;;6.55;;
39846;SDS011;25517;52.422;10.782;2024-02-26T06:32:06;9.52;;;6.95;;
39846;SDS011;25517;52.422;10.782;2024-02-26T06:34:32;9.82;;;6.15;;
39846;SDS011;25517;52.422;10.782;2024-02-26T06:36:58;10.02;;;5.95;;
39846;SDS011;25517;52.422;10.782;2024-02-26T06:39:23;8.60;;;6.07;;
39846;SDS011;25517;52.422;10.782;2024-02-26T06:41:49;7.20;;;5.55;;
39846;SDS011;25517;52.422;10.782;2024-02-26T06:44:14;11.43;;;6.68;;
39846;SDS011;25517;52.422;10.782;2024-02-26T06:46:40;12.15;;;6.18;;
39846;SDS011;25517;52.422;10.782;2024-02-26T06:49:05;8.68;;;5.78;;
39846;SDS011;25517;52.422;10.782;2024-02-26T06:51:31;8.18;;;6.53;;
39846;SDS011;25517;52.422;10.782;2024-02-26T06:53:56;10.75;;;6.55;;
39846;SDS011;25517;52.422;10.782;2024-02-26T06:56:22;6.55;;;5.00;;
39846;SDS011;25517;52.422;10.782;2024-02-26T06:58:48;8.55;;;4.75;;
39846;SDS011;25517;52.422;10.782;2024-02-26T07:01:13;8.65;;;5.82;;
39846;SDS011;25517;52.422;10.782;2024-02-26T07:03:42;8.68;;;4.47;;
39846;SDS011;25517;52.422;10.782;2024-02-26T07:06:08;7.95;;;5.72;;
39846;SDS011;25517;52.422;10.782;2024-02-26T07:08:33;10.38;;;5.53;;
39846;SDS011;25517;52.422;10.782;2024-02-26T07:10:59;6.65;;;4.90;;
39846;SDS011;25517;52.422;10.782;2024-02-26T07:13:24;19.05;;;7.03;;
39846;SDS011;25517;52.422;10.782;2024-02-26T07:15:50;8.07;;;5.75;;
39846;SDS011;25517;52.422;10.782;2024-02-26T07:18:15;9.52;;;5.38;;
39846;SDS011;25517;52.422;10.782;2024-02-26T07:20:41;7.63;;;5.45;;
39846;SDS011;25517;52.422;10.782;2024-02-26T07:23:06;8.23;;;5.65;;
39846;SDS011;25517;52.422;10.782;2024-02-26T07:25:32;12.52;;;5.82;;
39846;SDS011;25517;52.422;10.782;2024-02-26T07:27:58;9.38;;;6.68;;
39846;SDS011;25517;52.422;10.782;2024-02-26T07:30:23;7.57;;;4.40;;
39846;SDS011;25517;52.422;10.782;2024-02-26T07:32:49;9.52;;;5.45;;
39846;SDS011;25517;52.422;10.782;2024-02-26T07:35:15;9.02;;;5.68;;
39846;SDS011;25517;52.422;10.782;2024-02-26T07:37:42;8.13;;;4.82;;
39846;SDS011;25517;52.422;10.782;2024-02-26T07:40:08;7.97;;;5.25;;
39846;SDS011;25517;52.422;10.782;2024-02-26T07:42:34;6.88;;;4.47;;
39846;SDS011;25517;52.422;10.782;2024-02-26T07:44:59;7.07;;;5.40;;
39846;SDS011;25517;52.422;10.782;2024-02-26T07:47:25;6.80;;;4.55;;
39846;SDS011;25517;52.422;10.782;2024-02-26T07:49:50;7.25;;;5.13;;
39846;SDS011;25517;52.422;10.782;2024-02-26T07:52:16;5.45;;;4.40;;
39846;SDS011;25517;52.422;10.782;2024-02-26T07:54:42;5.60;;;3.85;;
39846;SDS011;25517;52.422;10.782;2024-02-26T07:57:07;5.57;;;4.20;;
39846;SDS011;25517;52.422;10.782;2024-02-26T07:59:33;8.43;;;4.28;;
39846;SDS011;25517;52.422;10.782;2024-02-26T08:01:58;7.10;;;4.72;;
39846;SDS011;25517;52.422;10.782;2024-02-26T08:04:24;6.30;;;4.30;;
39846;SDS011;25517;52.422;10.782;2024-02-26T08:06:51;7.15;;;5.03;;
39846;SDS011;25517;52.422;10.782;2024-02-26T08:09:17;8.35;;;4.43;;
39846;SDS011;25517;52.422;10.782;2024-02-26T08:11:42;8.52;;;5.22;;
39846;SDS011;25517;52.422;10.782;2024-02-26T08:14:08;5.88;;;4.72;;
39846;SDS011;25517;52.422;10.782;2024-02-26T08:16:34;7.30;;;4.65;;
39846;SDS011;25517;52.422;10.782;2024-02-26T08:19:00;5.80;;;4.53;;
39846;SDS011;25517;52.422;10.782;2024-02-26T08:21:25;8.10;;;5.65;;
39846;SDS011;25517;52.422;10.782;2024-02-26T08:23:51;7.57;;;4.68;;
39846;SDS011;25517;52.422;10.782;2024-02-26T08:26:16;9.23;;;5.32;;
39846;SDS011;25517;52.422;10.782;2024-02-26T08:28:42;8.85;;;4.80;;
39846;SDS011;25517;52.422;10.782;2024-02-26T08:31:07;7.82;;;4.35;;
39846;SDS011;25517;52.422;10.782;2024-02-26T08:33:33;6.97;;;4.60;;
39846;SDS011;25517;52.422;10.782;2024-02-26T08:36:03;8.57;;;4.20;;
39846;SDS011;25517;52.422;10.782;2024-02-26T08:38:30;7.60;;;4.50;;
39846;SDS011;25517;52.422;10.782;2024-02-26T08:40:55;5.85;;;3.90;;
39846;SDS011;25517;52.422;10.782;2024-02-26T08:43:21;6.10;;;4.18;;
39846;SDS011;25517;52.422;10.782;2024-02-26T08:45:46;5.90;;;4.38;;
39846;SDS011;25517;52.422;10.782;2024-02-26T08:48:12;6.32;;;4.22;;
39846;SDS011;25517;52.422;10.782;2024-02-26T08:50:37;7.25;;;4.35;;
39846;SDS011;25517;52.422;10.782;2024-02-26T08:53:03;6.10;;;4.03;;
39846;SDS011;25517;52.422;10.782;2024-02-26T08:55:29;7.07;;;4.55;;
39846;SDS011;25517;52.422;10.782;2024-02-26T08:57:54;8.55;;;4.60;;
39846;SDS011;25517;52.422;10.782;2024-02-26T09:00:20;7.03;;;4.28;;
39846;SDS011;25517;52.422;10.782;2024-02-26T09:02:47;9.10;;;5.22;;
39846;SDS011;25517;52.422;10.782;2024-02-26T09:05:13;6.78;;;4.63;;
39846;SDS011;25517;52.422;10.782;2024-02-26T09:07:39;9.63;;;4.90;;
39846;SDS011;25517;52.422;10.782;2024-02-26T09:10:05;6.88;;;4.90;;
39846;SDS011;25517;52.422;10.782;2024-02-26T09:12:33;9.13;;;5.00;;
39846;SDS011;25517;52.422;10.782;2024-02-26T09:14:59;6.00;;;4.22;;
39846;SDS011;25517;52.422;10.782;2024-02-26T09:17:24;6.82;;;4.40;;
39846;SDS011;25517;52.422;10.782;2024-02-26T09:19:50;6.93;;;4.78;;
39846;SDS011;25517;52.422;10.782;2024-02-26T09:22:15;8.45;;;5.22;;
39846;SDS011;25517;52.422;10.782;2024-02-26T09:24:41;7.40;;;5.30;;
39846;SDS011;25517;52.422;10.782;2024-02-26T09:27:06;8.48;;;4.82;;
39846;SDS011;25517;52.422;10.782;2024-02-26T09:29:32;9.90;;;4.53;;
39846;SDS011;25517;52.422;10.782;2024-02-26T09:31:58;11.75;;;5.25;;
39846;SDS011;25517;52.422;10.782;2024-02-26T09:34:23;10.15;;;5.40;;
39846;SDS011;25517;52.422;10.782;2024-02-26T09:36:49;8.32;;;4.90;;
39846;SDS011;25517;52.422;10.782;2024-02-26T09:39:14;6.85;;;4.75;;
39846;SDS011;25517;52.422;10.782;2024-02-26T09:44:10;5.57;;;4.00;;
39846;SDS011;25517;52.422;10.782;2024-02-26T09:46:38;5.32;;;4.28;;
39846;SDS011;25517;52.422;10.782;2024-02-26T09:49:04;8.07;;;4.28;;
39846;SDS011;25517;52.422;10.782;2024-02-26T09:51:30;5.57;;;3.85;;
39846;SDS011;25517;52.422;10.782;2024-02-26T09:53:57;11.57;;;4.88;;
39846;SDS011;25517;52.422;10.782;2024-02-26T09:56:26;8.52;;;4.30;;
39846;SDS011;25517;52.422;10.782;2024-02-26T09:58:52;8.02;;;4.55;;
39846;SDS011;25517;52.422;10.782;2024-02-26T10:01:20;7.43;;;4.70;;
39846;SDS011;25517;52.422;10.782;2024-02-26T10:03:48;7.82;;;5.07;;
39846;SDS011;25517;52.422;10.782;2024-02-26T10:06:20;8.95;;;4.68;;
39846;SDS011;25517;52.422;10.782;2024-02-26T10:08:46;8.35;;;4.63;;
39846;SDS011;25517;52.422;10.782;2024-02-26T10:11:12;7.82;;;4.93;;
39846;SDS011;25517;52.422;10.782;2024-02-26T10:13:39;5.25;;;4.15;;
39846;SDS011;25517;52.422;10.782;2024-02-26T10:16:06;8.40;;;4.57;;
39846;SDS011;25517;52.422;10.782;2024-02-26T10:18:45;5.72;;;3.97;;
39846;SDS011;25517;52.422;10.782;2024-02-26T10:21:11;8.77;;;4.28;;
39846;SDS011;25517;52.422;10.782;2024-02-26T10:23:37;7.43;;;4.80;;
39846;SDS011;25517;52.422;10.782;2024-02-26T10:26:02;9.57;;;5.22;;
39846;SDS011;25517;52.422;10.782;2024-02-26T10:28:29;6.20;;;4.35;;
39846;SDS011;25517;52.422;10.782;2024-02-26T10:30:55;8.63;;;4.65;;
39846;SDS011;25517;52.422;10.782;2024-02-26T10:33:20;7.97;;;5.13;;
39846;SDS011;25517;52.422;10.782;2024-02-26T10:35:47;7.75;;;5.00;;
39846;SDS011;25517;52.422;10.782;2024-02-26T10:38:13;8.82;;;5.05;;
39846;SDS011;25517;52.422;10.782;2024-02-26T10:40:41;6.22;;;4.43;;
39846;SDS011;25517;52.422;10.782;2024-02-26T10:43:07;12.43;;;5.18;;
39846;SDS011;25517;52.422;10.782;2024-02-26T10:45:33;9.80;;;5.75;;
39846;SDS011;25517;52.422;10.782;2024-02-26T10:47:58;5.80;;;4.68;;
39846;SDS011;25517;52.422;10.782;2024-02-26T10:50:25;5.78;;;4.75;;
39846;SDS011;25517;52.422;10.782;2024-02-26T10:52:51;6.10;;;4.65;;
39846;SDS011;25517;52.422;10.782;2024-02-26T10:55:17;8.27;;;4.60;;
39846;SDS011;25517;52.422;10.782;2024-02-26T10:57:45;7.85;;;4.88;;
39846;SDS011;25517;52.422;10.782;2024-02-26T11:00:15;7.93;;;5.32;;
39846;SDS011;25517;52.422;10.782;2024-02-26T11:02:41;7.53;;;5.13;;
39846;SDS011;25517;52.422;10.782;2024-02-26T11:05:09;6.10;;;4.40;;
39846;SDS011;25517;52.422;10.782;2024-02-26T11:07:37;9.18;;;5.80;;
39846;SDS011;25517;52.422;10.782;2024-02-26T11:10:04;8.20;;;5.55;;
39846;SDS011;25517;52.422;10.782;2024-02-26T11:12:31;8.07;;;4.97;;
39846;SDS011;25517;52.422;10.782;2024-02-26T11:14:58;7.50;;;5.95;;
39846;SDS011;25517;52.422;10.782;2024-02-26T11:17:27;9.70;;;6.22;;
39846;SDS011;25517;52.422;10.782;2024-02-26T11:19:56;8.70;;;5.25;;
39846;SDS011;25517;52.422;10.782;2024-02-26T11:22:28;8.50;;;5.57;;
39846;SDS011;25517;52.422;10.782;2024-02-26T11:24:54;9.13;;;5.57;;
39846;SDS011;25517;52.422;10.782;2024-02-26T11:27:23;8.13;;;6.22;;
39846;SDS011;25517;52.422;10.782;2024-02-26T11:29:54;8.50;;;4.78;;
39846;SDS011;25517;52.422;10.782;2024-02-26T11:32:22;7.75;;;4.82;;
39846;SDS011;25517;52.422;10.782;2024-02-26T11:34:48;8.77;;;5.35;;
39846;SDS011;25517;52.422;10.782;2024-02-26T11:37:15;13.18;;;7.78;;
39846;SDS011;25517;52.422;10.782;2024-02-26T11:39:42;9.48;;;7.18;;
39846;SDS011;25517;52.422;10.782;2024-02-26T11:42:09;9.50;;;6.32;;
39846;SDS011;25517;52.422;10.782;2024-02-26T11:44:38;12.52;;;6.40;;
39846;SDS011;25517;52.422;10.782;2024-02-26T11:47:14;11.07;;;7.20;;
39846;SDS011;25517;52.422;10.782;2024-02-26T11:49:47;14.25;;;7.65;;
39846;SDS011;25517;52.422;10.782;2024-02-26T11:52:13;11.23;;;6.15;;
39846;SDS011;25517;52.422;10.782;2024-02-26T11:57:21;12.48;;;6.32;;
39846;SDS011;25517;52.422;10.782;2024-02-26T11:59:57;7.20;;;5.25;;
39846;SDS011;25517;52.422;10.782;2024-02-26T12:05:02;7.57;;;5.97;;
39846;SDS011;25517;52.422;10.782;2024-02-26T12:07:30;11.10;;;6.47;;
39846;SDS011;25517;52.422;10.782;2024-02-26T12:10:12;25.42;;;15.18;;
39846;SDS011;25517;52.422;10.782;2024-02-26T12:12:52;9.23;;;6.63;;
39846;SDS011;25517;52.422;10.782;2024-02-26T12:15:37;11.50;;;6.38;;
39846;SDS011;25517;52.422;10.782;2024-02-26T12:18:04;8.23;;;6.03;;
39846;SDS011;25517;52.422;10.782;2024-02-26T12:20:32;8.52;;;6.45;;
39846;SDS011;25517;52.422;10.782;2024-02-26T12:22:58;8.48;;;6.68;;
39846;SDS011;25517;52.422;10.782;2024-02-26T12:25:25;10.68;;;7.25;;
39846;SDS011;25517;52.422;10.782;2024-02-26T12:27:52;10.73;;;6.85;;
39846;SDS011;25517;52.422;10.782;2024-02-26T12:30:21;9.30;;;6.70;;
39846;SDS011;25517;52.422;10.782;2024-02-26T12:32:47;9.48;;;6.50;;
39846;SDS011;25517;52.422;10.782;2024-02-26T12:35:14;10.05;;;7.15;;
39846;SDS011;25517;52.422;10.782;2024-02-26T12:37:41;9.05;;;6.20;;
39846;SDS011;25517;52.422;10.782;2024-02-26T12:40:08;13.32;;;7.60;;
39846;SDS011;25517;52.422;10.782;2024-02-26T12:42:37;7.70;;;6.53;;
39846;SDS011;25517;52.422;10.782;2024-02-26T12:45:06;8.15;;;6.28;;
39846;SDS011;25517;52.422;10.782;2024-02-26T12:47:38;8.18;;;6.55;;
39846;SDS011;25517;52.422;10.782;2024-02-26T12:50:04;9.73;;;6.68;;
39846;SDS011;25517;52.422;10.782;2024-02-26T12:52:31;9.48;;;7.13;;
39846;SDS011;25517;52.422;10.782;2024-02-26T12:55:03;12.43;;;7.72;;
39846;SDS011;25517;52.422;10.782;2024-02-26T12:57:31;13.13;;;7.45;;
39846;SDS011;25517;52.422;10.782;2024-02-26T12:59:57;10.50;;;7.32;;
39846;SDS011;25517;52.422;10.782;2024-02-26T13:02:24;9.80;;;7.50;;
39846;SDS011;25517;52.422;10.782;2024-02-26T13:04:50;10.43;;;7.28;;
39846;SDS011;25517;52.422;10.782;2024-02-26T13:07:16;10.52;;;6.95;;
39846;SDS011;25517;52.422;10.782;2024-02-26T13:09:41;9.02;;;6.80;;
39846;SDS011;25517;52.422;10.782;2024-02-26T13:12:08;12.98;;;7.57;;
39846;SDS011;25517;52.422;10.782;2024-02-26T13:14:34;12.35;;;7.88;;
39846;SDS011;25517;52.422;10.782;2024-02-26T13:16:59;12.73;;;8.07;;
39846;SDS011;25517;52.422;10.782;2024-02-26T13:19:25;10.68;;;8.35;;
39846;SDS011;25517;52.422;10.782;2024-02-26T13:21:53;11.45;;;8.23;;
39846;SDS011;25517;52.422;10.782;2024-02-26T13:24:19;11.68;;;8.32;;
39846;SDS011;25517;52.422;10.782;2024-02-26T13:26:45;12.30;;;8.45;;
39846;SDS011;25517;52.422;10.782;2024-02-26T13:29:20;14.18;;;8.20;;
39846;SDS011;25517;52.422;10.782;2024-02-26T13:31:45;13.63;;;9.38;;
39846;SDS011;25517;52.422;10.782;2024-02-26T13:34:11;11.48;;;7.97;;
39846;SDS011;25517;52.422;10.782;2024-02-26T13:36:51;10.13;;;7.82;;
39846;SDS011;25517;52.422;10.782;2024-02-26T13:39:26;14.05;;;8.85;;
39846;SDS011;25517;52.422;10.782;2024-02-26T13:41:53;13.25;;;9.15;;
39846;SDS011;25517;52.422;10.782;2024-02-26T13:44:19;9.65;;;8.13;;
39846;SDS011;25517;52.422;10.782;2024-02-26T13:46:45;11.52;;;7.63;;
39846;SDS011;25517;52.422;10.782;2024-02-26T13:49:11;14.32;;;9.00;;
39846;SDS011;25517;52.422;10.782;2024-02-26T13:51:38;10.93;;;7.90;;
39846;SDS011;25517;52.422;10.782;2024-02-26T13:54:04;12.90;;;8.05;;
39846;SDS011;25517;52.422;10.782;2024-02-26T13:56:30;12.57;;;8.05;;
39846;SDS011;25517;52.422;10.782;2024-02-26T13:58:56;13.68;;;8.18;;
39846;SDS011;25517;52.422;10.782;2024-02-26T14:01:23;13.30;;;7.55;;
39846;SDS011;25517;52.422;10.782;2024-02-26T14:03:48;10.77;;;7.43;;
39846;SDS011;25517;52.422;10.782;2024-02-26T14:06:14;12.43;;;8.25;;
39846;SDS011;25517;52.422;10.782;2024-02-26T14:08:40;11.88;;;8.25;;
39846;SDS011;25517;52.422;10.782;2024-02-26T14:11:05;13.80;;;8.70;;
39846;SDS011;25517;52.422;10.782;2024-02-26T14:13:31;12.98;;;8.55;;
39846;SDS011;25517;52.422;10.782;2024-02-26T14:15:57;12.30;;;7.57;;
39846;SDS011;25517;52.422;10.782;2024-02-26T14:18:22;12.68;;;8.07;;
39846;SDS011;25517;52.422;10.782;2024-02-26T14:20:48;14.52;;;7.80;;
39846;SDS011;25517;52.422;10.782;2024-02-26T14:23:14;13.43;;;7.55;;
39846;SDS011;25517;52.422;10.782;2024-02-26T14:25:39;13.20;;;7.55;;
39846;SDS011;25517;52.422;10.782;2024-02-26T14:28:05;10.88;;;6.68;;
39846;SDS011;25517;52.422;10.782;2024-02-26T14:30:30;14.75;;;9.43;;
39846;SDS011;25517;52.422;10.782;2024-02-26T14:32:56;11.73;;;7.78;;
39846;SDS011;25517;52.422;10.782;2024-02-26T14:35:21;11.95;;;7.45;;